sensor_id;sensor_type;location;lat;lon;timestamp;P1;durP1;ratioP1;P2;durP2;ratioP2
15273;SDS011;7738;49.532;11.156;2022-09-09T00:01:04;4.95;;;1.25;;
15273;SDS011;7738;49.532;11.156;2022-09-09T00:03:40;2.58;;;1.13;;
15273;SDS011;7738;49.532;11.156;2022-09-09T00:06:16;2.17;;;1.05;;
15273;SDS011;7738;49.532;11.156;2022-09-09T00:09:01;2.60;;;1.60;;
15273;SDS011;7738;49.532;11.156;2022-09-09T00:11:35;4.47;;;1.38;;
15273;SDS011;7738;49.532;11.156;2022-09-09T00:14:08;4.38;;;1.13;;
15273;SDS011;7738;49.532;11.156;2022-09-09T00:16:41;4.32;;;0.98;;
15273;SDS011;7738;49.532;11.156;2022-09-09T00:19:15;6.75;;;1.60;;
15273;SDS011;7738;49.532;11.156;2022-09-09T00:21:52;2.55;;;0.90;;
15273;SDS011;7738;49.532;11.156;2022-09-09T00:24:29;1.58;;;0.70;;
15273;SDS011;7738;49.532;11.156;2022-09-09T00:27:07;3.38;;;0.95;;
15273;SDS011;7738;49.532;11.156;2022-09-09T00:29:41;1.85;;;0.80;;
15273;SDS011;7738;49.532;11.156;2022-09-09T00:32:13;2.25;;;1.10;;
15273;SDS011;7738;49.532;11.156;2022-09-09T00:34:47;2.38;;;1.23;;
15273;SDS011;7738;49.532;11.156;2022-09-09T00:37:20;5.30;;;1.42;;
15273;SDS011;7738;49.532;11.156;2022-09-09T00:39:55;4.00;;;0.90;;
15273;SDS011;7738;49.532;11.156;2022-09-09T00:42:30;2.25;;;1.27;;
15273;SDS011;7738;49.532;11.156;2022-09-09T00:45:07;2.50;;;1.00;;
15273;SDS011;7738;49.532;11.156;2022-09-09T00:47:43;4.70;;;1.42;;
15273;SDS011;7738;49.532;11.156;2022-09-09T00:52:46;1.75;;;1.25;;
15273;SDS011;7738;49.532;11.156;2022-09-09T00:55:24;4.47;;;1.00;;
15273;SDS011;7738;49.532;11.156;2022-09-09T00:57:56;3.67;;;1.58;;
15273;SDS011;7738;49.532;11.156;2022-09-09T01:00:27;5.78;;;1.65;;
15273;SDS011;7738;49.532;11.156;2022-09-09T01:05:48;2.45;;;1.30;;
15273;SDS011;7738;49.532;11.156;2022-09-09T01:08:27;2.90;;;1.20;;
15273;SDS011;7738;49.532;11.156;2022-09-09T01:11:00;5.00;;;1.42;;
15273;SDS011;7738;49.532;11.156;2022-09-09T01:13:32;2.35;;;1.23;;
15273;SDS011;7738;49.532;11.156;2022-09-09T01:16:08;1.42;;;1.20;;
15273;SDS011;7738;49.532;11.156;2022-09-09T01:18:43;4.15;;;1.50;;
15273;SDS011;7738;49.532;11.156;2022-09-09T01:21:16;3.25;;;1.15;;
15273;SDS011;7738;49.532;11.156;2022-09-09T01:24:04;3.42;;;1.55;;
15273;SDS011;7738;49.532;11.156;2022-09-09T01:26:53;2.83;;;1.05;;
15273;SDS011;7738;49.532;11.156;2022-09-09T01:29:25;4.97;;;1.38;;
15273;SDS011;7738;49.532;11.156;2022-09-09T01:31:56;2.90;;;1.73;;
15273;SDS011;7738;49.532;11.156;2022-09-09T01:34:29;4.28;;;1.13;;
15273;SDS011;7738;49.532;11.156;2022-09-09T01:37:01;3.15;;;1.30;;
15273;SDS011;7738;49.532;11.156;2022-09-09T01:39:32;3.15;;;1.30;;
15273;SDS011;7738;49.532;11.156;2022-09-09T01:42:11;1.60;;;1.10;;
15273;SDS011;7738;49.532;11.156;2022-09-09T01:44:42;3.55;;;1.20;;
15273;SDS011;7738;49.532;11.156;2022-09-09T01:47:13;5.22;;;1.67;;
15273;SDS011;7738;49.532;11.156;2022-09-09T01:50:05;3.45;;;1.15;;
15273;SDS011;7738;49.532;11.156;2022-09-09T01:52:37;2.28;;;1.10;;
15273;SDS011;7738;49.532;11.156;2022-09-09T01:55:11;5.43;;;1.45;;
15273;SDS011;7738;49.532;11.156;2022-09-09T01:57:47;4.72;;;1.42;;
15273;SDS011;7738;49.532;11.156;2022-09-09T02:00:25;1.65;;;1.33;;
15273;SDS011;7738;49.532;11.156;2022-09-09T02:02:59;3.53;;;1.92;;
15273;SDS011;7738;49.532;11.156;2022-09-09T02:05:42;4.43;;;1.55;;
15273;SDS011;7738;49.532;11.156;2022-09-09T02:08:23;1.90;;;1.35;;
15273;SDS011;7738;49.532;11.156;2022-09-09T02:11:03;2.90;;;1.00;;
15273;SDS011;7738;49.532;11.156;2022-09-09T02:13:44;2.38;;;1.10;;
15273;SDS011;7738;49.532;11.156;2022-09-09T02:16:18;2.38;;;1.05;;
15273;SDS011;7738;49.532;11.156;2022-09-09T02:18:51;2.40;;;1.42;;
15273;SDS011;7738;49.532;11.156;2022-09-09T02:21:33;2.05;;;1.15;;
15273;SDS011;7738;49.532;11.156;2022-09-09T02:24:04;2.20;;;0.93;;
15273;SDS011;7738;49.532;11.156;2022-09-09T02:26:42;4.10;;;1.00;;
15273;SDS011;7738;49.532;11.156;2022-09-09T02:29:20;6.00;;;1.42;;
15273;SDS011;7738;49.532;11.156;2022-09-09T02:31:52;3.78;;;1.90;;
15273;SDS011;7738;49.532;11.156;2022-09-09T02:34:31;2.42;;;1.13;;
15273;SDS011;7738;49.532;11.156;2022-09-09T02:37:06;1.77;;;1.10;;
15273;SDS011;7738;49.532;11.156;2022-09-09T02:39:40;4.32;;;1.00;;
15273;SDS011;7738;49.532;11.156;2022-09-09T02:42:14;3.13;;;1.30;;
15273;SDS011;7738;49.532;11.156;2022-09-09T02:44:48;1.80;;;1.23;;
15273;SDS011;7738;49.532;11.156;2022-09-09T02:47:21;1.98;;;0.95;;
15273;SDS011;7738;49.532;11.156;2022-09-09T02:50:00;2.40;;;0.88;;
15273;SDS011;7738;49.532;11.156;2022-09-09T02:52:41;3.65;;;1.30;;
15273;SDS011;7738;49.532;11.156;2022-09-09T02:55:23;2.28;;;1.02;;
15273;SDS011;7738;49.532;11.156;2022-09-09T02:57:59;4.80;;;0.90;;
15273;SDS011;7738;49.532;11.156;2022-09-09T03:00:35;2.80;;;1.45;;
15273;SDS011;7738;49.532;11.156;2022-09-09T03:03:06;4.53;;;1.40;;
15273;SDS011;7738;49.532;11.156;2022-09-09T03:05:38;1.83;;;0.70;;
15273;SDS011;7738;49.532;11.156;2022-09-09T03:08:10;2.45;;;1.13;;
15273;SDS011;7738;49.532;11.156;2022-09-09T03:10:41;2.00;;;1.10;;
15273;SDS011;7738;49.532;11.156;2022-09-09T03:13:14;3.72;;;1.10;;
15273;SDS011;7738;49.532;11.156;2022-09-09T03:15:48;3.42;;;1.10;;
15273;SDS011;7738;49.532;11.156;2022-09-09T03:18:20;2.22;;;0.77;;
15273;SDS011;7738;49.532;11.156;2022-09-09T03:20:52;3.55;;;1.00;;
15273;SDS011;7738;49.532;11.156;2022-09-09T03:23:24;2.90;;;0.90;;
15273;SDS011;7738;49.532;11.156;2022-09-09T03:25:55;3.72;;;0.85;;
15273;SDS011;7738;49.532;11.156;2022-09-09T03:28:36;1.73;;;0.73;;
15273;SDS011;7738;49.532;11.156;2022-09-09T03:31:08;3.22;;;1.00;;
15273;SDS011;7738;49.532;11.156;2022-09-09T03:36:13;1.95;;;1.30;;
15273;SDS011;7738;49.532;11.156;2022-09-09T03:38:43;1.23;;;0.93;;
15273;SDS011;7738;49.532;11.156;2022-09-09T03:41:14;1.40;;;0.77;;
15273;SDS011;7738;49.532;11.156;2022-09-09T03:43:45;1.48;;;0.57;;
15273;SDS011;7738;49.532;11.156;2022-09-09T03:46:19;1.13;;;0.68;;
15273;SDS011;7738;49.532;11.156;2022-09-09T03:48:49;6.20;;;0.95;;
15273;SDS011;7738;49.532;11.156;2022-09-09T03:51:20;2.80;;;0.82;;
15273;SDS011;7738;49.532;11.156;2022-09-09T03:53:51;1.48;;;1.02;;
15273;SDS011;7738;49.532;11.156;2022-09-09T03:56:26;3.25;;;1.25;;
15273;SDS011;7738;49.532;11.156;2022-09-09T03:58:56;2.78;;;0.98;;
15273;SDS011;7738;49.532;11.156;2022-09-09T04:01:29;1.83;;;0.90;;
15273;SDS011;7738;49.532;11.156;2022-09-09T04:03:59;4.35;;;1.92;;
15273;SDS011;7738;49.532;11.156;2022-09-09T04:06:29;3.08;;;1.33;;
15273;SDS011;7738;49.532;11.156;2022-09-09T04:09:00;3.15;;;1.65;;
15273;SDS011;7738;49.532;11.156;2022-09-09T04:11:32;3.38;;;1.15;;
15273;SDS011;7738;49.532;11.156;2022-09-09T04:14:03;4.45;;;0.95;;
15273;SDS011;7738;49.532;11.156;2022-09-09T04:16:36;2.63;;;0.93;;
15273;SDS011;7738;49.532;11.156;2022-09-09T04:19:11;3.00;;;0.85;;
15273;SDS011;7738;49.532;11.156;2022-09-09T04:21:43;2.42;;;1.42;;
15273;SDS011;7738;49.532;11.156;2022-09-09T04:24:15;2.45;;;1.15;;
15273;SDS011;7738;49.532;11.156;2022-09-09T04:26:45;5.32;;;0.90;;
15273;SDS011;7738;49.532;11.156;2022-09-09T04:29:15;3.38;;;0.85;;
15273;SDS011;7738;49.532;11.156;2022-09-09T04:31:48;1.95;;;1.13;;
15273;SDS011;7738;49.532;11.156;2022-09-09T04:34:19;4.82;;;1.30;;
15273;SDS011;7738;49.532;11.156;2022-09-09T04:36:50;6.43;;;1.02;;
15273;SDS011;7738;49.532;11.156;2022-09-09T04:39:21;2.05;;;0.70;;
15273;SDS011;7738;49.532;11.156;2022-09-09T04:41:52;4.32;;;1.27;;
15273;SDS011;7738;49.532;11.156;2022-09-09T04:44:22;3.50;;;0.73;;
15273;SDS011;7738;49.532;11.156;2022-09-09T04:46:55;2.15;;;1.00;;
15273;SDS011;7738;49.532;11.156;2022-09-09T04:49:26;3.38;;;1.08;;
15273;SDS011;7738;49.532;11.156;2022-09-09T04:51:58;2.47;;;0.70;;
15273;SDS011;7738;49.532;11.156;2022-09-09T04:54:29;1.40;;;0.77;;
15273;SDS011;7738;49.532;11.156;2022-09-09T04:56:59;5.03;;;0.75;;
15273;SDS011;7738;49.532;11.156;2022-09-09T04:59:29;1.70;;;0.70;;
15273;SDS011;7738;49.532;11.156;2022-09-09T05:02:04;2.85;;;1.02;;
15273;SDS011;7738;49.532;11.156;2022-09-09T05:04:34;5.85;;;1.15;;
15273;SDS011;7738;49.532;11.156;2022-09-09T05:07:05;2.80;;;0.95;;
15273;SDS011;7738;49.532;11.156;2022-09-09T05:09:35;1.98;;;0.90;;
15273;SDS011;7738;49.532;11.156;2022-09-09T05:12:06;3.10;;;1.00;;
15273;SDS011;7738;49.532;11.156;2022-09-09T05:14:42;4.90;;;1.05;;
15273;SDS011;7738;49.532;11.156;2022-09-09T05:17:15;8.35;;;1.17;;
15273;SDS011;7738;49.532;11.156;2022-09-09T05:19:46;3.10;;;1.00;;
15273;SDS011;7738;49.532;11.156;2022-09-09T05:22:18;2.55;;;0.90;;
15273;SDS011;7738;49.532;11.156;2022-09-09T05:24:52;4.50;;;1.33;;
15273;SDS011;7738;49.532;11.156;2022-09-09T05:27:23;3.45;;;1.08;;
15273;SDS011;7738;49.532;11.156;2022-09-09T05:29:53;2.53;;;1.10;;
15273;SDS011;7738;49.532;11.156;2022-09-09T05:32:26;3.65;;;1.48;;
15273;SDS011;7738;49.532;11.156;2022-09-09T05:35:00;4.00;;;1.00;;
15273;SDS011;7738;49.532;11.156;2022-09-09T05:37:30;4.03;;;1.13;;
15273;SDS011;7738;49.532;11.156;2022-09-09T05:40:01;2.30;;;1.17;;
15273;SDS011;7738;49.532;11.156;2022-09-09T05:42:34;1.33;;;0.88;;
15273;SDS011;7738;49.532;11.156;2022-09-09T05:45:06;4.50;;;1.13;;
15273;SDS011;7738;49.532;11.156;2022-09-09T05:47:40;2.58;;;0.82;;
15273;SDS011;7738;49.532;11.156;2022-09-09T05:50:13;2.33;;;1.17;;
15273;SDS011;7738;49.532;11.156;2022-09-09T05:52:43;2.03;;;1.10;;
15273;SDS011;7738;49.532;11.156;2022-09-09T05:55:14;3.00;;;0.80;;
15273;SDS011;7738;49.532;11.156;2022-09-09T05:57:47;2.97;;;0.77;;
15273;SDS011;7738;49.532;11.156;2022-09-09T06:02:53;1.70;;;0.75;;
15273;SDS011;7738;49.532;11.156;2022-09-09T06:05:24;2.58;;;1.10;;
15273;SDS011;7738;49.532;11.156;2022-09-09T06:07:55;5.45;;;0.88;;
15273;SDS011;7738;49.532;11.156;2022-09-09T06:10:25;1.98;;;0.95;;
15273;SDS011;7738;49.532;11.156;2022-09-09T06:12:56;1.40;;;1.00;;
15273;SDS011;7738;49.532;11.156;2022-09-09T06:15:26;3.20;;;0.90;;
15273;SDS011;7738;49.532;11.156;2022-09-09T06:18:00;7.35;;;1.08;;
15273;SDS011;7738;49.532;11.156;2022-09-09T06:20:31;3.95;;;0.88;;
15273;SDS011;7738;49.532;11.156;2022-09-09T06:23:03;2.60;;;1.00;;
15273;SDS011;7738;49.532;11.156;2022-09-09T06:25:33;2.22;;;0.90;;
15273;SDS011;7738;49.532;11.156;2022-09-09T06:28:05;2.65;;;0.93;;
15273;SDS011;7738;49.532;11.156;2022-09-09T06:30:36;1.63;;;0.73;;
15273;SDS011;7738;49.532;11.156;2022-09-09T06:33:09;4.90;;;1.05;;
15273;SDS011;7738;49.532;11.156;2022-09-09T06:35:39;3.60;;;1.00;;
15273;SDS011;7738;49.532;11.156;2022-09-09T06:38:09;3.58;;;0.90;;
15273;SDS011;7738;49.532;11.156;2022-09-09T06:40:39;4.53;;;0.82;;
15273;SDS011;7738;49.532;11.156;2022-09-09T06:43:10;10.75;;;1.13;;
15273;SDS011;7738;49.532;11.156;2022-09-09T06:45:52;1.67;;;0.70;;
15273;SDS011;7738;49.532;11.156;2022-09-09T06:48:25;3.03;;;0.65;;
15273;SDS011;7738;49.532;11.156;2022-09-09T06:51:02;3.17;;;0.90;;
15273;SDS011;7738;49.532;11.156;2022-09-09T06:53:33;3.38;;;0.80;;
15273;SDS011;7738;49.532;11.156;2022-09-09T06:56:17;2.67;;;0.60;;
15273;SDS011;7738;49.532;11.156;2022-09-09T07:01:24;1.17;;;0.70;;
15273;SDS011;7738;49.532;11.156;2022-09-09T07:04:02;4.35;;;0.57;;
15273;SDS011;7738;49.532;11.156;2022-09-09T07:06:36;2.85;;;0.63;;
15273;SDS011;7738;49.532;11.156;2022-09-09T07:09:12;9.50;;;2.60;;
15273;SDS011;7738;49.532;11.156;2022-09-09T07:11:47;3.00;;;0.88;;
15273;SDS011;7738;49.532;11.156;2022-09-09T07:14:20;1.58;;;0.60;;
15273;SDS011;7738;49.532;11.156;2022-09-09T07:16:57;2.70;;;0.25;;
15273;SDS011;7738;49.532;11.156;2022-09-09T07:19:36;3.03;;;0.75;;
15273;SDS011;7738;49.532;11.156;2022-09-09T07:22:06;4.20;;;0.57;;
15273;SDS011;7738;49.532;11.156;2022-09-09T07:24:37;2.15;;;0.70;;
15273;SDS011;7738;49.532;11.156;2022-09-09T07:27:08;3.30;;;0.60;;
15273;SDS011;7738;49.532;11.156;2022-09-09T07:29:38;1.40;;;0.60;;
15273;SDS011;7738;49.532;11.156;2022-09-09T07:32:09;2.50;;;0.32;;
15273;SDS011;7738;49.532;11.156;2022-09-09T07:34:41;3.60;;;0.85;;
15273;SDS011;7738;49.532;11.156;2022-09-09T07:37:12;1.90;;;0.77;;
15273;SDS011;7738;49.532;11.156;2022-09-09T07:39:44;4.90;;;0.70;;
15273;SDS011;7738;49.532;11.156;2022-09-09T07:42:16;1.92;;;0.65;;
15273;SDS011;7738;49.532;11.156;2022-09-09T07:44:46;1.73;;;0.52;;
15273;SDS011;7738;49.532;11.156;2022-09-09T07:47:21;2.92;;;0.93;;
15273;SDS011;7738;49.532;11.156;2022-09-09T07:49:54;2.53;;;0.68;;
15273;SDS011;7738;49.532;11.156;2022-09-09T07:52:29;2.58;;;0.80;;
15273;SDS011;7738;49.532;11.156;2022-09-09T07:55:02;3.90;;;0.88;;
15273;SDS011;7738;49.532;11.156;2022-09-09T07:57:33;1.55;;;0.57;;
15273;SDS011;7738;49.532;11.156;2022-09-09T08:00:04;3.78;;;0.20;;
15273;SDS011;7738;49.532;11.156;2022-09-09T08:02:41;1.60;;;0.60;;
15273;SDS011;7738;49.532;11.156;2022-09-09T08:05:14;0.70;;;0.32;;
15273;SDS011;7738;49.532;11.156;2022-09-09T08:07:44;1.50;;;0.22;;
15273;SDS011;7738;49.532;11.156;2022-09-09T08:10:15;4.18;;;0.50;;
15273;SDS011;7738;49.532;11.156;2022-09-09T08:12:47;2.55;;;0.25;;
15273;SDS011;7738;49.532;11.156;2022-09-09T08:15:38;1.75;;;0.30;;
15273;SDS011;7738;49.532;11.156;2022-09-09T08:18:10;1.40;;;0.22;;
15273;SDS011;7738;49.532;11.156;2022-09-09T08:20:43;2.90;;;0.22;;
15273;SDS011;7738;49.532;11.156;2022-09-09T08:23:13;2.90;;;0.63;;
15273;SDS011;7738;49.532;11.156;2022-09-09T08:25:44;2.40;;;0.17;;
15273;SDS011;7738;49.532;11.156;2022-09-09T08:28:15;3.15;;;0.65;;
15273;SDS011;7738;49.532;11.156;2022-09-09T08:30:45;3.20;;;0.63;;
15273;SDS011;7738;49.532;11.156;2022-09-09T08:33:15;2.85;;;0.52;;
15273;SDS011;7738;49.532;11.156;2022-09-09T08:35:52;2.67;;;0.47;;
15273;SDS011;7738;49.532;11.156;2022-09-09T08:38:22;2.30;;;0.32;;
15273;SDS011;7738;49.532;11.156;2022-09-09T08:40:53;1.83;;;0.22;;
15273;SDS011;7738;49.532;11.156;2022-09-09T08:43:30;2.78;;;0.30;;
15273;SDS011;7738;49.532;11.156;2022-09-09T08:46:02;2.65;;;0.28;;
15273;SDS011;7738;49.532;11.156;2022-09-09T08:48:44;2.70;;;0.50;;
15273;SDS011;7738;49.532;11.156;2022-09-09T08:51:18;1.67;;;0.30;;
15273;SDS011;7738;49.532;11.156;2022-09-09T08:56:25;2.22;;;0.17;;
15273;SDS011;7738;49.532;11.156;2022-09-09T08:58:59;0.60;;;0.13;;
15273;SDS011;7738;49.532;11.156;2022-09-09T09:01:42;1.80;;;0.20;;
15273;SDS011;7738;49.532;11.156;2022-09-09T09:04:28;4.00;;;0.10;;
15273;SDS011;7738;49.532;11.156;2022-09-09T09:07:05;1.10;;;0.10;;
15273;SDS011;7738;49.532;11.156;2022-09-09T09:09:46;1.88;;;0.22;;
15273;SDS011;7738;49.532;11.156;2022-09-09T09:12:19;2.10;;;0.63;;
15273;SDS011;7738;49.532;11.156;2022-09-09T09:14:50;2.85;;;0.47;;
15273;SDS011;7738;49.532;11.156;2022-09-09T09:17:23;1.60;;;0.15;;
15273;SDS011;7738;49.532;11.156;2022-09-09T09:19:56;1.00;;;0.17;;
15273;SDS011;7738;49.532;11.156;2022-09-09T09:22:34;2.10;;;0.20;;
15273;SDS011;7738;49.532;11.156;2022-09-09T09:25:10;2.03;;;0.25;;
15273;SDS011;7738;49.532;11.156;2022-09-09T09:27:44;1.23;;;0.20;;
15273;SDS011;7738;49.532;11.156;2022-09-09T09:30:17;4.68;;;0.20;;
15273;SDS011;7738;49.532;11.156;2022-09-09T09:32:58;1.35;;;0.22;;
15273;SDS011;7738;49.532;11.156;2022-09-09T09:35:32;4.32;;;0.98;;
15273;SDS011;7738;49.532;11.156;2022-09-09T09:38:15;2.75;;;0.32;;
15273;SDS011;7738;49.532;11.156;2022-09-09T09:41:07;3.47;;;0.20;;
15273;SDS011;7738;49.532;11.156;2022-09-09T09:43:39;3.78;;;0.10;;
15273;SDS011;7738;49.532;11.156;2022-09-09T09:46:19;1.88;;;0.13;;
15273;SDS011;7738;49.532;11.156;2022-09-09T09:48:57;1.80;;;0.50;;
15273;SDS011;7738;49.532;11.156;2022-09-09T09:51:29;2.85;;;0.22;;
15273;SDS011;7738;49.532;11.156;2022-09-09T09:56:50;0.95;;;0.20;;
15273;SDS011;7738;49.532;11.156;2022-09-09T09:59:24;3.47;;;0.38;;
15273;SDS011;7738;49.532;11.156;2022-09-09T10:02:22;1.65;;;0.10;;
15273;SDS011;7738;49.532;11.156;2022-09-09T10:05:04;2.40;;;0.10;;
15273;SDS011;7738;49.532;11.156;2022-09-09T10:07:35;1.27;;;0.00;;
15273;SDS011;7738;49.532;11.156;2022-09-09T10:10:08;2.65;;;0.00;;
15273;SDS011;7738;49.532;11.156;2022-09-09T10:12:45;2.97;;;0.17;;
15273;SDS011;7738;49.532;11.156;2022-09-09T10:15:26;3.28;;;0.20;;
15273;SDS011;7738;49.532;11.156;2022-09-09T10:18:01;1.50;;;0.22;;
15273;SDS011;7738;49.532;11.156;2022-09-09T10:20:35;1.85;;;0.40;;
15273;SDS011;7738;49.532;11.156;2022-09-09T10:23:14;2.25;;;0.10;;
15273;SDS011;7738;49.532;11.156;2022-09-09T10:26:01;3.55;;;1.40;;
15273;SDS011;7738;49.532;11.156;2022-09-09T10:31:36;1.15;;;0.10;;
15273;SDS011;7738;49.532;11.156;2022-09-09T10:34:12;3.47;;;0.20;;
15273;SDS011;7738;49.532;11.156;2022-09-09T10:36:56;2.50;;;0.82;;
15273;SDS011;7738;49.532;11.156;2022-09-09T10:39:31;1.50;;;0.00;;
15273;SDS011;7738;49.532;11.156;2022-09-09T10:42:12;1.13;;;0.10;;
15273;SDS011;7738;49.532;11.156;2022-09-09T10:44:47;0.85;;;0.00;;
15273;SDS011;7738;49.532;11.156;2022-09-09T10:47:27;2.15;;;0.10;;
15273;SDS011;7738;49.532;11.156;2022-09-09T10:50:18;1.25;;;0.10;;
15273;SDS011;7738;49.532;11.156;2022-09-09T10:53:14;1.13;;;0.03;;
15273;SDS011;7738;49.532;11.156;2022-09-09T10:55:52;3.30;;;0.00;;
15273;SDS011;7738;49.532;11.156;2022-09-09T10:58:27;3.72;;;0.20;;
15273;SDS011;7738;49.532;11.156;2022-09-09T11:01:05;3.83;;;0.30;;
15273;SDS011;7738;49.532;11.156;2022-09-09T11:03:42;2.17;;;0.20;;
15273;SDS011;7738;49.532;11.156;2022-09-09T11:06:14;1.00;;;0.10;;
15273;SDS011;7738;49.532;11.156;2022-09-09T11:08:45;0.65;;;0.08;;
15273;SDS011;7738;49.532;11.156;2022-09-09T11:11:24;3.85;;;0.20;;
15273;SDS011;7738;49.532;11.156;2022-09-09T11:14:00;2.40;;;0.17;;
15273;SDS011;7738;49.532;11.156;2022-09-09T11:16:33;2.38;;;0.30;;
15273;SDS011;7738;49.532;11.156;2022-09-09T11:19:07;3.50;;;0.40;;
15273;SDS011;7738;49.532;11.156;2022-09-09T11:21:45;1.58;;;0.20;;
15273;SDS011;7738;49.532;11.156;2022-09-09T11:24:17;1.55;;;0.10;;
15273;SDS011;7738;49.532;11.156;2022-09-09T11:26:54;2.45;;;0.20;;
15273;SDS011;7738;49.532;11.156;2022-09-09T11:29:36;2.65;;;0.20;;
15273;SDS011;7738;49.532;11.156;2022-09-09T11:32:14;1.75;;;0.10;;
15273;SDS011;7738;49.532;11.156;2022-09-09T11:34:50;1.75;;;0.30;;
15273;SDS011;7738;49.532;11.156;2022-09-09T11:40:14;1.15;;;0.10;;
15273;SDS011;7738;49.532;11.156;2022-09-09T11:42:46;1.40;;;0.10;;
15273;SDS011;7738;49.532;11.156;2022-09-09T11:45:23;0.47;;;0.00;;
15273;SDS011;7738;49.532;11.156;2022-09-09T11:47:56;4.40;;;0.20;;
15273;SDS011;7738;49.532;11.156;2022-09-09T11:50:32;3.33;;;0.43;;
15273;SDS011;7738;49.532;11.156;2022-09-09T11:53:04;0.70;;;0.10;;
15273;SDS011;7738;49.532;11.156;2022-09-09T11:55:35;3.00;;;0.00;;
15273;SDS011;7738;49.532;11.156;2022-09-09T11:58:05;2.22;;;0.15;;
15273;SDS011;7738;49.532;11.156;2022-09-09T12:00:39;1.98;;;0.15;;
15273;SDS011;7738;49.532;11.156;2022-09-09T12:03:30;5.53;;;0.57;;
15273;SDS011;7738;49.532;11.156;2022-09-09T12:06:08;1.42;;;0.20;;
15273;SDS011;7738;49.532;11.156;2022-09-09T12:08:40;3.83;;;0.20;;
15273;SDS011;7738;49.532;11.156;2022-09-09T12:11:11;5.15;;;0.52;;
15273;SDS011;7738;49.532;11.156;2022-09-09T12:13:54;1.42;;;0.10;;
15273;SDS011;7738;49.532;11.156;2022-09-09T12:16:31;1.58;;;0.20;;
15273;SDS011;7738;49.532;11.156;2022-09-09T12:19:05;1.75;;;0.10;;
15273;SDS011;7738;49.532;11.156;2022-09-09T12:21:36;1.85;;;0.30;;
15273;SDS011;7738;49.532;11.156;2022-09-09T12:24:10;1.80;;;0.10;;
15273;SDS011;7738;49.532;11.156;2022-09-09T12:26:43;1.48;;;0.22;;
15273;SDS011;7738;49.532;11.156;2022-09-09T12:29:23;2.95;;;0.20;;
15273;SDS011;7738;49.532;11.156;2022-09-09T12:32:00;1.35;;;0.10;;
15273;SDS011;7738;49.532;11.156;2022-09-09T12:34:36;1.23;;;0.15;;
15273;SDS011;7738;49.532;11.156;2022-09-09T12:37:14;0.65;;;0.00;;
15273;SDS011;7738;49.532;11.156;2022-09-09T12:39:50;0.98;;;0.10;;
15273;SDS011;7738;49.532;11.156;2022-09-09T12:42:21;1.45;;;0.00;;
15273;SDS011;7738;49.532;11.156;2022-09-09T12:44:53;1.85;;;0.68;;
15273;SDS011;7738;49.532;11.156;2022-09-09T12:47:32;1.20;;;0.08;;
15273;SDS011;7738;49.532;11.156;2022-09-09T12:50:10;1.10;;;0.10;;
15273;SDS011;7738;49.532;11.156;2022-09-09T12:52:44;0.98;;;0.03;;
15273;SDS011;7738;49.532;11.156;2022-09-09T12:55:16;1.80;;;0.30;;
15273;SDS011;7738;49.532;11.156;2022-09-09T12:57:48;0.93;;;0.00;;
15273;SDS011;7738;49.532;11.156;2022-09-09T13:00:20;0.60;;;0.10;;
15273;SDS011;7738;49.532;11.156;2022-09-09T13:02:54;0.40;;;0.08;;
15273;SDS011;7738;49.532;11.156;2022-09-09T13:05:26;1.58;;;0.10;;
15273;SDS011;7738;49.532;11.156;2022-09-09T13:08:03;2.63;;;0.13;;
15273;SDS011;7738;49.532;11.156;2022-09-09T13:10:35;3.83;;;0.17;;
15273;SDS011;7738;49.532;11.156;2022-09-09T13:13:28;1.02;;;0.13;;
15273;SDS011;7738;49.532;11.156;2022-09-09T13:15:59;1.10;;;0.10;;
15273;SDS011;7738;49.532;11.156;2022-09-09T13:18:34;2.28;;;0.10;;
15273;SDS011;7738;49.532;11.156;2022-09-09T13:21:04;3.83;;;0.30;;
15273;SDS011;7738;49.532;11.156;2022-09-09T13:23:35;2.97;;;0.08;;
15273;SDS011;7738;49.532;11.156;2022-09-09T13:26:18;3.00;;;0.08;;
15273;SDS011;7738;49.532;11.156;2022-09-09T13:28:50;1.02;;;0.05;;
15273;SDS011;7738;49.532;11.156;2022-09-09T13:31:22;3.38;;;0.25;;
15273;SDS011;7738;49.532;11.156;2022-09-09T13:33:56;1.35;;;0.20;;
15273;SDS011;7738;49.532;11.156;2022-09-09T13:36:27;3.55;;;0.10;;
15273;SDS011;7738;49.532;11.156;2022-09-09T13:38:59;0.57;;;0.00;;
15273;SDS011;7738;49.532;11.156;2022-09-09T13:41:31;2.45;;;0.10;;
15273;SDS011;7738;49.532;11.156;2022-09-09T13:44:02;1.42;;;0.00;;
15273;SDS011;7738;49.532;11.156;2022-09-09T13:46:34;2.17;;;0.10;;
15273;SDS011;7738;49.532;11.156;2022-09-09T13:49:20;0.32;;;0.00;;
15273;SDS011;7738;49.532;11.156;2022-09-09T13:52:01;0.57;;;0.00;;
15273;SDS011;7738;49.532;11.156;2022-09-09T13:54:32;0.65;;;0.00;;
15273;SDS011;7738;49.532;11.156;2022-09-09T13:57:02;0.82;;;0.00;;
15273;SDS011;7738;49.532;11.156;2022-09-09T13:59:33;2.13;;;0.10;;
15273;SDS011;7738;49.532;11.156;2022-09-09T14:02:23;0.73;;;0.00;;
15273;SDS011;7738;49.532;11.156;2022-09-09T14:04:56;3.17;;;0.00;;
15273;SDS011;7738;49.532;11.156;2022-09-09T14:07:26;1.80;;;0.10;;
15273;SDS011;7738;49.532;11.156;2022-09-09T14:09:56;1.40;;;0.00;;
15273;SDS011;7738;49.532;11.156;2022-09-09T14:12:26;0.43;;;0.00;;
15273;SDS011;7738;49.532;11.156;2022-09-09T14:14:57;0.65;;;0.00;;
15273;SDS011;7738;49.532;11.156;2022-09-09T14:17:28;0.25;;;0.10;;
15273;SDS011;7738;49.532;11.156;2022-09-09T14:20:01;1.58;;;0.10;;
15273;SDS011;7738;49.532;11.156;2022-09-09T14:22:32;0.15;;;0.00;;
15273;SDS011;7738;49.532;11.156;2022-09-09T14:25:02;1.48;;;0.08;;
15273;SDS011;7738;49.532;11.156;2022-09-09T14:27:33;0.75;;;0.20;;
15273;SDS011;7738;49.532;11.156;2022-09-09T14:30:05;3.20;;;0.10;;
15273;SDS011;7738;49.532;11.156;2022-09-09T14:32:35;4.63;;;0.30;;
15273;SDS011;7738;49.532;11.156;2022-09-09T14:35:08;2.22;;;0.30;;
15273;SDS011;7738;49.532;11.156;2022-09-09T14:37:38;1.85;;;0.17;;
15273;SDS011;7738;49.532;11.156;2022-09-09T14:40:10;3.17;;;0.20;;
15273;SDS011;7738;49.532;11.156;2022-09-09T14:42:40;4.85;;;0.30;;
15273;SDS011;7738;49.532;11.156;2022-09-09T14:45:11;2.00;;;0.10;;
15273;SDS011;7738;49.532;11.156;2022-09-09T14:47:41;3.53;;;0.57;;
15273;SDS011;7738;49.532;11.156;2022-09-09T14:50:14;1.30;;;0.30;;
15273;SDS011;7738;49.532;11.156;2022-09-09T14:52:44;1.20;;;0.10;;
15273;SDS011;7738;49.532;11.156;2022-09-09T14:55:15;2.45;;;0.22;;
15273;SDS011;7738;49.532;11.156;2022-09-09T14:57:45;2.17;;;0.20;;
15273;SDS011;7738;49.532;11.156;2022-09-09T15:00:16;1.42;;;0.22;;
15273;SDS011;7738;49.532;11.156;2022-09-09T15:02:46;2.40;;;0.10;;
15273;SDS011;7738;49.532;11.156;2022-09-09T15:05:19;2.25;;;0.15;;
15273;SDS011;7738;49.532;11.156;2022-09-09T15:07:50;4.03;;;0.73;;
15273;SDS011;7738;49.532;11.156;2022-09-09T15:10:20;3.03;;;0.17;;
15273;SDS011;7738;49.532;11.156;2022-09-09T15:12:51;1.20;;;0.20;;
15273;SDS011;7738;49.532;11.156;2022-09-09T15:15:21;6.18;;;0.82;;
15273;SDS011;7738;49.532;11.156;2022-09-09T15:17:51;2.30;;;0.20;;
15273;SDS011;7738;49.532;11.156;2022-09-09T15:20:24;2.53;;;0.00;;
15273;SDS011;7738;49.532;11.156;2022-09-09T15:22:54;4.38;;;0.13;;
15273;SDS011;7738;49.532;11.156;2022-09-09T15:25:24;1.05;;;0.05;;
15273;SDS011;7738;49.532;11.156;2022-09-09T15:27:54;0.52;;;0.00;;
15273;SDS011;7738;49.532;11.156;2022-09-09T15:30:25;4.20;;;0.35;;
15273;SDS011;7738;49.532;11.156;2022-09-09T15:32:54;3.33;;;0.10;;
15273;SDS011;7738;49.532;11.156;2022-09-09T15:35:27;3.22;;;0.50;;
15273;SDS011;7738;49.532;11.156;2022-09-09T15:38:01;2.72;;;0.10;;
15273;SDS011;7738;49.532;11.156;2022-09-09T15:40:31;2.20;;;0.10;;
15273;SDS011;7738;49.532;11.156;2022-09-09T15:43:01;2.67;;;0.38;;
15273;SDS011;7738;49.532;11.156;2022-09-09T15:45:32;0.77;;;0.00;;
15273;SDS011;7738;49.532;11.156;2022-09-09T15:48:02;1.35;;;0.10;;
15273;SDS011;7738;49.532;11.156;2022-09-09T15:50:36;3.83;;;0.20;;
15273;SDS011;7738;49.532;11.156;2022-09-09T15:53:06;1.77;;;0.20;;